createdAt,value
2022-08-05T00:00:23.742Z,10.50
2022-08-05T00:02:54.234Z,10.02
2022-08-05T00:05:27.485Z,6.78
2022-08-05T00:08:35.023Z,7.20
2022-08-05T00:11:01.415Z,7.00
2022-08-05T00:13:38.953Z,6.38
2022-08-05T00:16:10.984Z,4.55
2022-08-05T00:18:42.730Z,8.18
2022-08-05T00:21:14.572Z,5.78
2022-08-05T00:23:45.731Z,5.05
2022-08-05T00:26:22.819Z,4.72
2022-08-05T00:28:51.614Z,6.90
2022-08-05T00:31:54.008Z,6.97
2022-08-05T00:34:55.130Z,7.70
2022-08-05T00:37:10.881Z,7.55
2022-08-05T00:39:44.088Z,8.07
2022-08-05T00:42:31.904Z,5.65
2022-08-05T00:45:00.720Z,8.60
2022-08-05T00:47:53.388Z,7.15
2022-08-05T00:50:16.693Z,6.88
2022-08-05T00:52:45.440Z,6.28
2022-08-05T00:55:15.052Z,6.53
2022-08-05T00:57:55.243Z,6.85
2022-08-05T01:00:27.590Z,6.45
2022-08-05T01:02:55.985Z,6.38
2022-08-05T01:05:23.918Z,7.82
2022-08-05T01:08:41.290Z,6.07
2022-08-05T01:10:51.530Z,8.23
2022-08-05T01:13:27.413Z,8.52
2022-08-05T01:16:21.018Z,5.50
2022-08-05T01:18:59.166Z,7.03
2022-08-05T01:21:58.351Z,6.22
2022-08-05T01:24:53.735Z,8.25
2022-08-05T01:27:33.022Z,6.97
2022-08-05T01:30:05.657Z,9.93
2022-08-05T01:32:48.484Z,7.30
2022-08-05T01:35:52.126Z,7.15
2022-08-05T01:38:10.158Z,6.30
2022-08-05T01:40:54.024Z,7.32
2022-08-05T01:43:24.173Z,7.40
2022-08-05T01:45:56.106Z,6.85
2022-08-05T01:48:26.165Z,6.65
2022-08-05T01:50:56.731Z,5.82
2022-08-05T01:53:54.869Z,6.63
2022-08-05T01:58:12.973Z,10.48
2022-08-05T01:59:09.179Z,9.65
2022-08-05T02:01:40.252Z,7.18
2022-08-05T02:04:10.760Z,5.93
2022-08-05T02:06:39.295Z,7.90
2022-08-05T02:09:08.459Z,7.65
2022-08-05T02:11:47.855Z,7.20
2022-08-05T02:14:31.926Z,8.38
2022-08-05T02:17:07.911Z,9.55
2022-08-05T02:19:49.487Z,9.93
2022-08-05T02:22:26.797Z,8.55
2022-08-05T02:25:06.209Z,7.88
2022-08-05T02:27:58.443Z,10.63
2022-08-05T02:30:32.348Z,8.50
2022-08-05T02:33:06.726Z,8.15
2022-08-05T02:35:44.294Z,8.13
2022-08-05T02:38:35.108Z,10.60
2022-08-05T02:41:14.495Z,10.57
2022-08-05T02:44:05.999Z,9.95
2022-08-05T02:46:35.263Z,8.32
2022-08-05T02:49:07.014Z,8.88
2022-08-05T02:52:03.250Z,7.50
2022-08-05T02:54:36.091Z,8.35
2022-08-05T02:57:10.259Z,9.52
2022-08-05T02:59:57.608Z,7.85
2022-08-05T03:02:30.636Z,9.00
2022-08-05T03:05:01.531Z,6.80
2022-08-05T03:07:56.592Z,10.10
2022-08-05T03:10:22.107Z,7.85
2022-08-05T03:12:55.088Z,7.05
2022-08-05T03:15:23.524Z,12.45
2022-08-05T03:17:54.071Z,7.85
2022-08-05T03:20:25.268Z,8.68
2022-08-05T03:22:57.268Z,8.10
2022-08-05T03:26:03.898Z,10.75
2022-08-05T03:28:18.584Z,8.40
2022-08-05T03:30:49.548Z,10.77
2022-08-05T03:33:19.713Z,8.68
2022-08-05T03:35:49.864Z,7.38
2022-08-05T03:38:32.635Z,8.57
2022-08-05T03:41:03.955Z,7.68
2022-08-05T03:44:09.902Z,7.90
2022-08-05T03:46:29.490Z,13.05
2022-08-05T03:48:57.991Z,11.43
2022-08-05T03:52:48.780Z,11.73
2022-08-05T03:55:52.639Z,13.23
2022-08-05T03:57:16.598Z,12.13
2022-08-05T03:59:54.770Z,11.48
2022-08-05T04:02:39.106Z,14.90
2022-08-05T04:05:14.261Z,14.13
2022-08-05T04:07:57.152Z,11.27
2022-08-05T04:10:28.171Z,12.63
2022-08-05T04:12:59.233Z,11.63
2022-08-05T04:15:27.920Z,11.45
2022-08-05T04:18:03.328Z,10.95
2022-08-05T04:20:31.284Z,16.10
2022-08-05T04:23:01.206Z,18.98
2022-08-05T04:25:57.520Z,12.73
2022-08-05T04:28:17.244Z,12.93
2022-08-05T04:30:45.336Z,15.13
2022-08-05T04:33:13.961Z,14.18
2022-08-05T04:36:15.939Z,13.57
2022-08-05T04:38:39.702Z,12.98
2022-08-05T04:41:09.535Z,11.23
2022-08-05T04:43:46.570Z,10.48
2022-08-05T04:46:28.409Z,13.68
2022-08-05T04:48:58.817Z,10.35
2022-08-05T04:51:30.598Z,11.90
2022-08-05T04:54:01.419Z,12.63
2022-08-05T04:56:34.568Z,12.13
2022-08-05T04:59:13.994Z,8.55
2022-08-05T05:02:35.046Z,12.93
2022-08-05T05:04:47.816Z,12.15
2022-08-05T05:07:18.168Z,11.93
2022-08-05T05:09:47.436Z,14.52
2022-08-05T05:12:15.358Z,13.57
2022-08-05T05:14:50.805Z,14.55
2022-08-05T05:17:23.902Z,16.70
2022-08-05T05:19:55.183Z,15.25
2022-08-05T05:22:26.521Z,13.32
2022-08-05T05:24:59.781Z,11.40
2022-08-05T05:27:44.889Z,16.13
2022-08-05T05:30:15.433Z,14.57
2022-08-05T05:33:00.907Z,13.68
2022-08-05T05:35:37.780Z,14.70
2022-08-05T05:38:09.316Z,14.88
2022-08-05T05:40:49.782Z,12.02
2022-08-05T05:43:27.591Z,14.93
2022-08-05T05:46:13.708Z,14.93
2022-08-05T05:48:45.957Z,16.60
2022-08-05T05:51:19.855Z,13.43
2022-08-05T05:53:57.392Z,14.32
2022-08-05T05:56:32.271Z,15.43
2022-08-05T05:59:05.517Z,19.85
2022-08-05T06:01:36.969Z,17.42
2022-08-05T06:04:07.409Z,15.02
2022-08-05T06:06:35.755Z,13.05
2022-08-05T06:09:04.085Z,13.93
2022-08-05T06:11:33.461Z,14.20
2022-08-05T06:14:01.698Z,14.65
2022-08-05T06:16:36.824Z,15.77
2022-08-05T06:19:07.360Z,11.90
2022-08-05T06:21:38.347Z,10.30
2022-08-05T06:24:11.351Z,12.10
2022-08-05T06:26:51.406Z,10.65
2022-08-05T06:29:43.007Z,11.75
2022-08-05T06:32:26.111Z,13.45
2022-08-05T06:34:58.330Z,10.48
2022-08-05T06:37:55.970Z,13.77
2022-08-05T06:40:18.050Z,11.30
2022-08-05T06:42:51.731Z,12.20
2022-08-05T06:45:21.336Z,11.60
2022-08-05T06:48:36.440Z,11.52
2022-08-05T06:50:56.268Z,11.35
2022-08-05T06:53:28.681Z,8.65
2022-08-05T06:55:57.092Z,12.68
2022-08-05T06:58:35.124Z,11.50
2022-08-05T07:01:06.106Z,12.65
2022-08-05T07:03:35.565Z,9.43
2022-08-05T07:06:05.649Z,9.57
2022-08-05T07:08:43.173Z,9.90
2022-08-05T07:11:16.453Z,9.77
2022-08-05T07:14:20.153Z,10.73
2022-08-05T07:17:57.208Z,8.57
2022-08-05T07:22:30.176Z,9.07
2022-08-05T07:25:23.486Z,8.68
2022-08-05T07:27:57.134Z,11.95
2022-08-05T07:30:32.425Z,7.45
2022-08-05T07:33:01.100Z,11.63
2022-08-05T07:36:04.848Z,9.02
2022-08-05T07:38:34.192Z,7.18
2022-08-05T07:42:07.027Z,10.13
2022-08-05T07:43:56.083Z,9.00
2022-08-05T07:46:27.100Z,7.95
2022-08-05T07:49:01.835Z,7.05
2022-08-05T07:51:40.297Z,8.57
2022-08-05T07:54:09.959Z,9.20
2022-08-05T07:56:38.941Z,7.78
2022-08-05T07:59:38.147Z,7.55
2022-08-05T08:02:15.820Z,8.02
2022-08-05T08:04:47.770Z,9.40
2022-08-05T08:07:17.938Z,14.10
2022-08-05T08:09:46.258Z,6.65
2022-08-05T08:12:33.446Z,8.98
2022-08-05T08:15:03.531Z,9.77
2022-08-05T08:17:35.302Z,9.15
2022-08-05T08:20:43.036Z,7.82
2022-08-05T08:22:55.658Z,6.72
2022-08-05T08:25:27.082Z,10.15
2022-08-05T08:28:18.853Z,7.45
2022-08-05T08:31:00.727Z,9.38
2022-08-05T08:33:30.384Z,8.30
2022-08-05T08:36:40.248Z,9.30
2022-08-05T08:38:55.719Z,10.02
2022-08-05T08:41:51.360Z,7.22
2022-08-05T08:45:16.388Z,9.68
2022-08-05T08:47:47.237Z,6.85
2022-08-05T08:50:14.689Z,6.30
2022-08-05T08:52:51.542Z,6.57
2022-08-05T08:56:02.810Z,10.80
2022-08-05T08:58:13.115Z,7.60
2022-08-05T09:00:44.647Z,6.70
2022-08-05T09:03:16.284Z,9.23
2022-08-05T09:06:09.132Z,14.10
2022-08-05T09:08:40.519Z,9.30
2022-08-05T09:11:13.900Z,7.85
2022-08-05T09:14:00.838Z,6.25
2022-08-05T09:16:31.993Z,8.38
2022-08-05T09:19:00.006Z,9.15
2022-08-05T09:22:31.285Z,8.02
2022-08-05T09:24:17.754Z,6.07
2022-08-05T09:26:51.901Z,5.90
2022-08-05T09:29:20.486Z,6.65
2022-08-05T09:32:41.921Z,6.75
2022-08-05T09:34:58.509Z,6.10
2022-08-05T09:38:16.536Z,6.30
2022-08-05T09:40:32.272Z,7.03
2022-08-05T09:43:01.485Z,6.97
2022-08-05T09:46:07.887Z,8.15
2022-08-05T09:48:29.456Z,8.65
2022-08-05T09:51:00.597Z,7.22
2022-08-05T09:53:53.656Z,8.43
2022-08-05T09:56:27.349Z,6.50
2022-08-05T09:59:04.090Z,5.93
2022-08-05T10:01:35.172Z,6.70
2022-08-05T10:04:10.462Z,5.32
2022-08-05T10:06:40.452Z,6.28
2022-08-05T10:09:27.286Z,5.93
2022-08-05T10:11:56.718Z,6.82
2022-08-05T10:14:28.115Z,4.88
2022-08-05T10:17:36.857Z,4.70
2022-08-05T10:20:03.796Z,6.43
2022-08-05T10:22:42.845Z,4.55
2022-08-05T10:25:18.864Z,5.78
2022-08-05T10:28:13.458Z,4.10
2022-08-05T10:31:20.478Z,4.78
2022-08-05T10:33:28.817Z,4.20
2022-08-05T10:35:59.670Z,5.03
2022-08-05T10:38:33.202Z,4.35
2022-08-05T10:41:12.377Z,3.85
2022-08-05T10:43:50.386Z,3.13
2022-08-05T10:46:24.136Z,4.78
2022-08-05T10:49:01.496Z,4.85
2022-08-05T10:51:57.669Z,4.93
2022-08-05T10:54:56.520Z,4.95
2022-08-05T10:57:32.063Z,3.92
2022-08-05T11:00:12.160Z,2.85
2022-08-05T11:03:24.812Z,3.92
2022-08-05T11:06:22.376Z,4.10
2022-08-05T11:09:32.500Z,4.00
2022-08-05T11:12:50.784Z,6.43
2022-08-05T11:16:00.254Z,5.82
2022-08-05T11:18:29.845Z,5.32
2022-08-05T11:21:02.129Z,6.10
2022-08-05T11:24:04.924Z,4.22
2022-08-05T11:26:29.013Z,5.47
2022-08-05T11:29:06.593Z,4.43
2022-08-05T11:31:54.300Z,5.25
2022-08-05T11:34:38.872Z,6.10
2022-08-05T11:38:29.464Z,4.78
2022-08-05T11:40:03.023Z,6.72
2022-08-05T11:42:37.613Z,4.40
2022-08-05T11:45:14.478Z,7.32
2022-08-05T11:47:54.831Z,6.82
2022-08-05T11:50:23.396Z,5.13
2022-08-05T11:52:57.617Z,6.93
2022-08-05T11:55:32.164Z,7.30
2022-08-05T11:58:10.861Z,7.68
2022-08-05T12:00:41.442Z,7.25
2022-08-05T12:03:28.386Z,4.55
2022-08-05T12:06:13.365Z,3.83
2022-08-05T12:08:49.989Z,4.82
2022-08-05T12:11:21.554Z,8.20
2022-08-05T12:13:58.678Z,3.83
2022-08-05T12:16:34.867Z,16.13
2022-08-05T12:19:10.007Z,4.93
2022-08-05T12:21:58.023Z,6.32
2022-08-05T12:24:26.185Z,6.75
2022-08-05T12:26:56.509Z,7.78
2022-08-05T12:29:27.323Z,19.38
2022-08-05T12:31:57.236Z,5.07
2022-08-05T12:34:29.542Z,5.15
2022-08-05T12:36:59.481Z,6.90
2022-08-05T12:39:37.110Z,9.40
2022-08-05T12:42:14.401Z,12.98
2022-08-05T12:44:44.696Z,6.75
2022-08-05T12:47:13.848Z,6.00
2022-08-05T12:50:02.408Z,3.90
2022-08-05T12:52:38.918Z,3.92
2022-08-05T12:55:22.333Z,4.82
2022-08-05T12:58:52.741Z,7.15
2022-08-05T13:02:01.800Z,7.03
2022-08-05T13:03:42.447Z,3.53
2022-08-05T13:06:19.947Z,4.00
2022-08-05T13:08:52.401Z,5.43
2022-08-05T13:11:25.423Z,4.32
2022-08-05T13:14:36.256Z,6.80
2022-08-05T13:17:12.672Z,4.90
2022-08-05T13:19:52.947Z,3.10
2022-08-05T13:22:29.180Z,3.35
2022-08-05T13:25:00.763Z,4.78
2022-08-05T13:27:37.276Z,1.80
2022-08-05T13:30:34.476Z,9.90
2022-08-05T13:32:56.514Z,5.82
2022-08-05T13:35:43.326Z,3.70
2022-08-05T13:38:28.426Z,2.80
2022-08-05T13:40:59.812Z,8.00
2022-08-05T13:43:44.957Z,2.65
2022-08-05T13:46:16.190Z,5.00
2022-08-05T13:48:57.850Z,7.45
2022-08-05T13:51:40.149Z,3.75
2022-08-05T13:54:12.859Z,2.45
2022-08-05T13:56:44.923Z,2.50
2022-08-05T13:59:21.295Z,10.38
2022-08-05T14:01:58.383Z,2.28
2022-08-05T14:04:50.225Z,2.60
2022-08-05T14:07:57.062Z,3.15
2022-08-05T14:10:12.674Z,4.00
2022-08-05T14:12:42.859Z,2.03
2022-08-05T14:16:04.634Z,5.88
2022-08-05T14:18:05.594Z,2.00
2022-08-05T14:20:34.248Z,1.77
2022-08-05T14:23:02.634Z,3.03
2022-08-05T14:25:31.923Z,1.17
2022-08-05T14:27:59.754Z,1.90
2022-08-05T14:30:28.696Z,1.15
2022-08-05T14:32:58.838Z,2.50
2022-08-05T14:35:50.024Z,4.25
2022-08-05T14:38:32.937Z,1.95
2022-08-05T14:41:07.756Z,2.60
2022-08-05T14:44:00.210Z,1.38
2022-08-05T14:46:28.276Z,2.00
2022-08-05T14:48:57.930Z,1.83
2022-08-05T14:51:30.766Z,2.33
2022-08-05T14:54:25.833Z,1.45
2022-08-05T14:56:48.702Z,6.95
2022-08-05T14:59:21.327Z,3.78
2022-08-05T15:01:50.073Z,3.88
2022-08-05T15:04:20.542Z,0.80
2022-08-05T15:06:50.154Z,0.85
2022-08-05T15:09:50.654Z,3.45
2022-08-05T15:12:08.937Z,1.20
2022-08-05T15:14:49.882Z,1.83
2022-08-05T15:17:45.929Z,1.75
2022-08-05T15:20:13.421Z,1.58
2022-08-05T15:22:46.377Z,1.52
2022-08-05T15:25:23.384Z,6.43
2022-08-05T15:28:14.430Z,2.05
2022-08-05T15:30:43.246Z,1.98
2022-08-05T15:33:11.887Z,3.05
2022-08-05T15:35:45.392Z,4.82
2022-08-05T15:38:35.706Z,2.80
2022-08-05T15:41:22.937Z,1.10
2022-08-05T15:43:51.857Z,5.53
2022-08-05T15:46:24.087Z,4.72
2022-08-05T15:48:58.690Z,1.70
2022-08-05T15:52:04.045Z,1.80
2022-08-05T15:54:18.482Z,1.95
2022-08-05T15:56:46.536Z,3.50
2022-08-05T15:59:22.031Z,1.55
2022-08-05T16:01:52.995Z,3.40
2022-08-05T16:04:25.371Z,2.35
2022-08-05T16:06:54.175Z,1.95
2022-08-05T16:09:23.887Z,1.98
2022-08-05T16:11:53.903Z,2.40
2022-08-05T16:14:23.469Z,2.38
2022-08-05T16:16:51.835Z,4.63
2022-08-05T16:20:02.758Z,5.95
2022-08-05T16:22:10.684Z,4.28
2022-08-05T16:24:41.732Z,0.98
2022-08-05T16:27:32.078Z,0.90
2022-08-05T16:30:25.631Z,1.13
2022-08-05T16:32:54.819Z,1.50
2022-08-05T16:35:28.701Z,1.00
2022-08-05T16:38:02.656Z,2.67
2022-08-05T16:40:51.655Z,2.25
2022-08-05T16:43:24.024Z,2.42
2022-08-05T16:46:05.011Z,2.72
2022-08-05T16:48:39.123Z,3.55
2022-08-05T16:51:09.821Z,1.52
2022-08-05T16:54:02.848Z,0.90
2022-08-05T16:56:27.728Z,2.28
2022-08-05T16:58:55.977Z,2.83
2022-08-05T17:01:31.733Z,1.30
2022-08-05T17:04:16.250Z,3.13
2022-08-05T17:06:53.074Z,2.10
2022-08-05T17:09:21.606Z,1.45
2022-08-05T17:11:55.898Z,3.78
2022-08-05T17:14:36.955Z,1.83
2022-08-05T17:17:14.347Z,0.90
2022-08-05T17:19:45.732Z,1.73
2022-08-05T17:22:17.856Z,1.25
2022-08-05T17:24:57.650Z,3.58
2022-08-05T17:27:34.006Z,2.60
2022-08-05T17:30:03.502Z,3.33
2022-08-05T17:32:34.690Z,1.50
2022-08-05T17:35:03.964Z,1.70
2022-08-05T17:37:41.567Z,9.88
2022-08-05T17:40:15.430Z,1.02
2022-08-05T17:42:50.768Z,2.10
2022-08-05T17:45:21.257Z,2.03
2022-08-05T17:47:54.968Z,1.90
2022-08-05T17:50:28.435Z,1.88
2022-08-05T17:53:00.182Z,1.25
2022-08-05T17:55:34.568Z,3.78
2022-08-05T17:58:12.240Z,2.08
2022-08-05T18:00:45.307Z,1.23
2022-08-05T18:03:56.575Z,2.42
2022-08-05T18:06:11.522Z,1.80
2022-08-05T18:08:45.102Z,1.88
2022-08-05T18:11:23.913Z,2.10
2022-08-05T18:13:54.606Z,3.78
2022-08-05T18:16:23.501Z,3.22
2022-08-05T18:18:52.907Z,2.03
2022-08-05T18:21:26.087Z,1.70
2022-08-05T18:23:54.606Z,1.25
2022-08-05T18:26:29.027Z,6.97
2022-08-05T18:28:58.061Z,2.00
2022-08-05T18:31:33.118Z,0.63
2022-08-05T18:34:05.817Z,2.42
2022-08-05T18:36:36.041Z,2.35
2022-08-05T18:39:06.574Z,2.10
2022-08-05T18:41:56.360Z,1.20
2022-08-05T18:44:35.204Z,1.20
2022-08-05T18:47:12.165Z,2.05
2022-08-05T18:50:00.208Z,1.67
2022-08-05T18:52:36.196Z,1.20
2022-08-05T18:55:10.664Z,1.80
2022-08-05T18:57:50.019Z,1.50
2022-08-05T19:00:28.652Z,2.70
2022-08-05T19:03:03.916Z,1.95
2022-08-05T19:06:12.764Z,2.63
2022-08-05T19:08:30.888Z,2.15
2022-08-05T19:11:04.770Z,1.20
2022-08-05T19:13:36.682Z,1.45
2022-08-05T19:16:24.438Z,1.08
2022-08-05T19:18:57.035Z,2.35
2022-08-05T19:21:34.146Z,1.17
2022-08-05T19:24:06.676Z,2.08
2022-08-05T19:26:43.954Z,2.13
2022-08-05T19:29:23.782Z,1.20
2022-08-05T19:31:54.840Z,1.63
2022-08-05T19:34:25.603Z,4.50
2022-08-05T19:36:55.031Z,3.13
2022-08-05T19:39:23.279Z,1.95
2022-08-05T19:42:06.632Z,0.82
2022-08-05T19:44:44.588Z,2.83
2022-08-05T19:47:15.275Z,3.17
2022-08-05T19:49:44.751Z,2.15
2022-08-05T19:52:40.572Z,3.03
2022-08-05T19:55:06.805Z,1.65
2022-08-05T19:57:48.878Z,2.47
2022-08-05T20:00:23.795Z,2.53
2022-08-05T20:02:52.750Z,3.08
2022-08-05T20:05:24.570Z,3.05
2022-08-05T20:07:58.854Z,2.05
2022-08-05T20:10:27.551Z,5.03
2022-08-05T20:12:56.870Z,2.67
2022-08-05T20:15:52.035Z,2.88
2022-08-05T20:18:32.665Z,3.45
2022-08-05T20:21:00.668Z,3.85
2022-08-05T20:23:39.398Z,2.55
2022-08-05T20:26:17.977Z,1.67
2022-08-05T20:28:48.546Z,3.13
2022-08-05T20:31:17.119Z,2.28
2022-08-05T20:33:45.845Z,1.40
2022-08-05T20:36:16.493Z,4.18
2022-08-05T20:38:53.265Z,4.38
2022-08-05T20:41:24.153Z,5.65
2022-08-05T20:43:58.762Z,4.65
2022-08-05T20:46:28.949Z,1.98
2022-08-05T20:48:57.494Z,2.63
2022-08-05T20:51:25.358Z,6.15
2022-08-05T20:53:56.398Z,1.80
2022-08-05T20:56:29.776Z,3.50
2022-08-05T20:59:14.026Z,3.30
2022-08-05T21:01:47.661Z,3.20
2022-08-05T21:04:18.805Z,4.80
2022-08-05T21:06:47.722Z,3.97
2022-08-05T21:09:17.929Z,3.67
2022-08-05T21:12:07.685Z,1.67
2022-08-05T21:14:35.579Z,3.88
2022-08-05T21:17:05.261Z,2.38
2022-08-05T21:19:46.789Z,3.55
2022-08-05T21:22:18.513Z,2.63
2022-08-05T21:24:51.637Z,3.28
2022-08-05T21:27:25.122Z,2.22
2022-08-05T21:29:54.152Z,2.30
2022-08-05T21:32:24.529Z,2.10
2022-08-05T21:35:08.662Z,4.45
2022-08-05T21:37:47.380Z,3.55
2022-08-05T21:40:23.793Z,1.00
2022-08-05T21:42:53.641Z,4.97
2022-08-05T21:45:25.184Z,4.78
2022-08-05T21:48:10.799Z,3.97
2022-08-05T21:50:54.349Z,1.50
2022-08-05T21:53:24.857Z,4.38
2022-08-05T21:56:05.924Z,2.67
2022-08-05T21:58:48.410Z,4.40
2022-08-05T22:01:26.145Z,4.25
2022-08-05T22:03:54.195Z,1.27
2022-08-05T22:06:39.475Z,3.08
2022-08-05T22:09:13.912Z,3.58
2022-08-05T22:11:46.787Z,2.63
2022-08-05T22:14:34.305Z,1.77
2022-08-05T22:17:06.700Z,1.92
2022-08-05T22:20:01.418Z,2.72
2022-08-05T22:22:28.247Z,3.95
2022-08-05T22:25:21.851Z,4.80
2022-08-05T22:28:09.564Z,1.20
2022-08-05T22:30:44.136Z,2.65
2022-08-05T22:33:56.974Z,2.78
2022-08-05T22:36:14.780Z,3.70
2022-08-05T22:38:43.996Z,4.80
2022-08-05T22:42:04.179Z,3.10
2022-08-05T22:44:07.323Z,3.42
2022-08-05T22:46:39.578Z,2.55
2022-08-05T22:49:23.020Z,1.90
2022-08-05T22:52:05.988Z,4.65
2022-08-05T22:54:36.083Z,3.20
2022-08-05T22:57:04.095Z,5.57
2022-08-05T22:59:43.693Z,2.47
2022-08-05T23:02:14.003Z,2.45
2022-08-05T23:04:51.897Z,3.10
2022-08-05T23:07:21.843Z,2.40
2022-08-05T23:09:57.702Z,4.60
2022-08-05T23:12:32.546Z,2.57
2022-08-05T23:15:03.369Z,3.40
2022-08-05T23:17:34.349Z,3.63
2022-08-05T23:20:10.447Z,1.93
2022-08-05T23:22:47.097Z,5.47
2022-08-05T23:25:50.962Z,2.43
2022-08-05T23:28:07.876Z,4.80
2022-08-05T23:30:40.539Z,2.43
2022-08-05T23:33:21.819Z,1.97
2022-08-05T23:35:51.134Z,3.50
2022-08-05T23:38:19.413Z,5.80
2022-08-05T23:40:49.380Z,3.67
2022-08-05T23:43:25.472Z,3.47
2022-08-05T23:46:20.161Z,2.07
2022-08-05T23:49:00.305Z,3.37
2022-08-05T23:51:52.906Z,4.67
2022-08-05T23:54:25.949Z,5.80
2022-08-05T23:56:54.804Z,2.10
2022-08-05T23:59:37.364Z,2.10
